sensor_id;sensor_type;location;lat;lon;timestamp;pressure;altitude;pressure_sealevel;temperature;humidity
28628;BME280;15815;46.760;19.604;2022-09-16T00:00:48;99462.84;;;20.56;86.57
28628;BME280;15815;46.760;19.604;2022-09-16T00:03:15;99466.66;;;20.53;86.92
28628;BME280;15815;46.760;19.604;2022-09-16T00:05:46;99476.00;;;20.54;86.75
28628;BME280;15815;46.760;19.604;2022-09-16T00:08:13;99479.84;;;20.51;87.00
28628;BME280;15815;46.760;19.604;2022-09-16T00:10:39;99486.84;;;20.50;86.78
28628;BME280;15815;46.760;19.604;2022-09-16T00:13:05;99480.16;;;20.53;86.50
28628;BME280;15815;46.760;19.604;2022-09-16T00:15:31;99478.00;;;20.48;87.01
28628;BME280;15815;46.760;19.604;2022-09-16T00:17:56;99482.91;;;20.47;87.11
28628;BME280;15815;46.760;19.604;2022-09-16T00:20:21;99487.13;;;20.52;87.01
28628;BME280;15815;46.760;19.604;2022-09-16T00:22:47;99475.53;;;20.55;86.64
28628;BME280;15815;46.760;19.604;2022-09-16T00:25:12;99483.91;;;20.59;85.90
28628;BME280;15815;46.760;19.604;2022-09-16T00:27:37;99482.34;;;20.58;86.03
28628;BME280;15815;46.760;19.604;2022-09-16T00:30:03;99487.75;;;20.56;86.30
28628;BME280;15815;46.760;19.604;2022-09-16T00:32:28;99494.03;;;20.60;85.81
28628;BME280;15815;46.760;19.604;2022-09-16T00:34:54;99490.41;;;20.59;86.06
28628;BME280;15815;46.760;19.604;2022-09-16T00:37:19;99494.91;;;20.66;86.33
28628;BME280;15815;46.760;19.604;2022-09-16T00:39:47;99493.56;;;20.61;85.90
28628;BME280;15815;46.760;19.604;2022-09-16T00:42:13;99489.41;;;20.62;86.06
28628;BME280;15815;46.760;19.604;2022-09-16T00:44:57;99479.34;;;20.67;85.47
28628;BME280;15815;46.760;19.604;2022-09-16T00:47:24;99483.50;;;20.66;85.75
28628;BME280;15815;46.760;19.604;2022-09-16T00:49:52;99492.06;;;20.66;86.07
28628;BME280;15815;46.760;19.604;2022-09-16T00:52:20;99491.38;;;20.56;86.66
28628;BME280;15815;46.760;19.604;2022-09-16T00:54:46;99498.19;;;20.59;86.79
28628;BME280;15815;46.760;19.604;2022-09-16T00:57:12;99502.13;;;20.61;86.58
28628;BME280;15815;46.760;19.604;2022-09-16T00:59:45;99500.44;;;20.55;87.55
28628;BME280;15815;46.760;19.604;2022-09-16T01:02:15;99498.47;;;20.61;87.32
28628;BME280;15815;46.760;19.604;2022-09-16T01:04:53;99510.69;;;20.61;87.29
28628;BME280;15815;46.760;19.604;2022-09-16T01:07:29;99500.84;;;20.62;87.23
28628;BME280;15815;46.760;19.604;2022-09-16T01:09:56;99509.09;;;20.60;87.55
28628;BME280;15815;46.760;19.604;2022-09-16T01:12:21;99501.03;;;20.59;87.62
28628;BME280;15815;46.760;19.604;2022-09-16T01:14:47;99498.66;;;20.57;87.65
28628;BME280;15815;46.760;19.604;2022-09-16T01:26:22;99507.59;;;20.50;88.43
28628;BME280;15815;46.760;19.604;2022-09-16T01:43:00;99507.88;;;20.37;89.19
28628;BME280;15815;46.760;19.604;2022-09-16T01:46:09;99519.78;;;20.36;89.29
28628;BME280;15815;46.760;19.604;2022-09-16T01:51:04;99509.06;;;20.31;89.58
28628;BME280;15815;46.760;19.604;2022-09-16T01:53:38;99514.78;;;20.31;89.25
28628;BME280;15815;46.760;19.604;2022-09-16T01:56:19;99524.13;;;20.31;89.39
28628;BME280;15815;46.760;19.604;2022-09-16T01:59:07;99527.19;;;20.28;89.92
28628;BME280;15815;46.760;19.604;2022-09-16T02:02:04;99530.22;;;20.39;89.18
28628;BME280;15815;46.760;19.604;2022-09-16T02:04:38;99531.50;;;20.38;89.05
28628;BME280;15815;46.760;19.604;2022-09-16T02:07:06;99530.84;;;20.43;88.42
28628;BME280;15815;46.760;19.604;2022-09-16T02:09:40;99536.25;;;20.41;88.73
28628;BME280;15815;46.760;19.604;2022-09-16T02:12:12;99531.72;;;20.34;89.13
28628;BME280;15815;46.760;19.604;2022-09-16T02:14:42;99539.19;;;20.32;89.69
28628;BME280;15815;46.760;19.604;2022-09-16T02:17:12;99532.19;;;20.33;89.41
28628;BME280;15815;46.760;19.604;2022-09-16T02:20:26;99522.72;;;20.27;89.50
28628;BME280;15815;46.760;19.604;2022-09-16T02:22:36;99530.09;;;20.19;90.19
28628;BME280;15815;46.760;19.604;2022-09-16T02:25:05;99536.00;;;20.15;90.39
28628;BME280;15815;46.760;19.604;2022-09-16T02:27:34;99532.84;;;20.13;90.45
28628;BME280;15815;46.760;19.604;2022-09-16T02:30:05;99548.09;;;20.10;90.66
28628;BME280;15815;46.760;19.604;2022-09-16T02:32:34;99544.75;;;20.12;90.83
28628;BME280;15815;46.760;19.604;2022-09-16T02:35:01;99545.53;;;20.12;90.62
28628;BME280;15815;46.760;19.604;2022-09-16T02:37:31;99543.28;;;20.16;90.66
28628;BME280;15815;46.760;19.604;2022-09-16T02:40:02;99534.44;;;20.14;90.61
28628;BME280;15815;46.760;19.604;2022-09-16T02:42:30;99540.13;;;20.14;90.94
28628;BME280;15815;46.760;19.604;2022-09-16T02:44:56;99538.56;;;20.13;91.13
28628;BME280;15815;46.760;19.604;2022-09-16T02:52:41;99539.34;;;20.14;90.80
28628;BME280;15815;46.760;19.604;2022-09-16T02:57:59;99546.03;;;20.11;90.58
28628;BME280;15815;46.760;19.604;2022-09-16T03:00:27;99551.72;;;20.11;90.95
28628;BME280;15815;46.760;19.604;2022-09-16T03:02:54;99554.28;;;20.09;90.94
28628;BME280;15815;46.760;19.604;2022-09-16T03:05:19;99560.97;;;20.05;91.32
28628;BME280;15815;46.760;19.604;2022-09-16T03:07:45;99560.19;;;20.05;91.27
28628;BME280;15815;46.760;19.604;2022-09-16T03:10:11;99549.56;;;20.05;91.10
28628;BME280;15815;46.760;19.604;2022-09-16T03:16:08;99562.25;;;20.04;90.25
28628;BME280;15815;46.760;19.604;2022-09-16T03:18:50;99556.31;;;19.93;90.14
28628;BME280;15815;46.760;19.604;2022-09-16T03:24:10;99550.09;;;19.95;87.59
28628;BME280;15815;46.760;19.604;2022-09-16T03:27:02;99545.78;;;19.99;86.34
28628;BME280;15815;46.760;19.604;2022-09-16T03:29:36;99544.00;;;19.87;86.20
28628;BME280;15815;46.760;19.604;2022-09-16T03:34:37;99551.06;;;19.77;86.39
28628;BME280;15815;46.760;19.604;2022-09-16T03:37:07;99550.28;;;19.77;86.16
28628;BME280;15815;46.760;19.604;2022-09-16T03:39:34;99551.25;;;19.73;86.12
28628;BME280;15815;46.760;19.604;2022-09-16T03:42:05;99546.81;;;19.72;86.00
28628;BME280;15815;46.760;19.604;2022-09-16T03:44:33;99545.69;;;19.70;85.93
28628;BME280;15815;46.760;19.604;2022-09-16T03:46:59;99547.28;;;19.71;85.43
28628;BME280;15815;46.760;19.604;2022-09-16T03:49:25;99532.91;;;19.65;85.28
28628;BME280;15815;46.760;19.604;2022-09-16T03:51:50;99538.31;;;19.63;85.30
28628;BME280;15815;46.760;19.604;2022-09-16T03:54:15;99541.53;;;19.56;84.93
28628;BME280;15815;46.760;19.604;2022-09-16T03:56:41;99535.19;;;19.52;84.99
28628;BME280;15815;46.760;19.604;2022-09-16T03:59:06;99547.56;;;19.49;85.22
28628;BME280;15815;46.760;19.604;2022-09-16T04:01:31;99552.50;;;19.49;84.97
28628;BME280;15815;46.760;19.604;2022-09-16T04:03:57;99545.22;;;19.48;84.76
28628;BME280;15815;46.760;19.604;2022-09-16T04:06:22;99543.00;;;19.42;84.82
28628;BME280;15815;46.760;19.604;2022-09-16T04:08:47;99546.81;;;19.39;84.80
28628;BME280;15815;46.760;19.604;2022-09-16T04:11:15;99554.75;;;19.35;84.87
28628;BME280;15815;46.760;19.604;2022-09-16T04:13:40;99552.88;;;19.32;84.72
28628;BME280;15815;46.760;19.604;2022-09-16T04:16:06;99562.03;;;19.36;84.55
28628;BME280;15815;46.760;19.604;2022-09-16T04:18:32;99566.47;;;19.37;84.26
28628;BME280;15815;46.760;19.604;2022-09-16T04:21:00;99568.09;;;19.29;84.12
28628;BME280;15815;46.760;19.604;2022-09-16T04:23:26;99572.22;;;19.28;83.79
28628;BME280;15815;46.760;19.604;2022-09-16T04:26:00;99579.78;;;19.31;83.96
28628;BME280;15815;46.760;19.604;2022-09-16T04:28:27;99582.34;;;19.29;83.48
28628;BME280;15815;46.760;19.604;2022-09-16T04:30:52;99583.63;;;19.28;83.74
28628;BME280;15815;46.760;19.604;2022-09-16T04:33:18;99580.28;;;19.30;83.25
28628;BME280;15815;46.760;19.604;2022-09-16T04:35:44;99595.00;;;19.28;83.42
28628;BME280;15815;46.760;19.604;2022-09-16T04:38:09;99597.88;;;19.28;83.33
28628;BME280;15815;46.760;19.604;2022-09-16T04:40:34;99593.44;;;19.27;82.94
28628;BME280;15815;46.760;19.604;2022-09-16T04:42:59;99597.06;;;19.28;82.88
28628;BME280;15815;46.760;19.604;2022-09-16T04:45:25;99598.81;;;19.25;82.29
28628;BME280;15815;46.760;19.604;2022-09-16T04:47:57;99594.59;;;19.21;82.40
28628;BME280;15815;46.760;19.604;2022-09-16T04:50:22;99601.25;;;19.18;82.66
28628;BME280;15815;46.760;19.604;2022-09-16T04:52:48;99599.50;;;19.20;82.44
28628;BME280;15815;46.760;19.604;2022-09-16T04:55:16;99602.34;;;19.20;82.71
28628;BME280;15815;46.760;19.604;2022-09-16T04:57:41;99592.53;;;19.21;82.33
28628;BME280;15815;46.760;19.604;2022-09-16T05:00:07;99592.22;;;19.19;82.41
28628;BME280;15815;46.760;19.604;2022-09-16T05:02:32;99602.81;;;19.19;82.90
28628;BME280;15815;46.760;19.604;2022-09-16T05:04:58;99599.97;;;19.19;82.60
28628;BME280;15815;46.760;19.604;2022-09-16T05:07:23;99606.13;;;19.17;82.95
28628;BME280;15815;46.760;19.604;2022-09-16T05:09:48;99613.44;;;19.18;82.94
28628;BME280;15815;46.760;19.604;2022-09-16T05:12:14;99608.66;;;19.15;83.31
28628;BME280;15815;46.760;19.604;2022-09-16T05:14:39;99610.25;;;19.16;83.56
28628;BME280;15815;46.760;19.604;2022-09-16T05:17:04;99615.94;;;19.16;83.31
28628;BME280;15815;46.760;19.604;2022-09-16T05:19:31;99621.63;;;19.16;83.10
28628;BME280;15815;46.760;19.604;2022-09-16T05:21:56;99627.66;;;19.18;82.90
28628;BME280;15815;46.760;19.604;2022-09-16T05:24:22;99627.66;;;19.18;83.43
28628;BME280;15815;46.760;19.604;2022-09-16T05:26:47;99626.41;;;19.19;83.15
28628;BME280;15815;46.760;19.604;2022-09-16T05:29:14;99632.22;;;19.25;82.62
28628;BME280;15815;46.760;19.604;2022-09-16T05:31:41;99629.84;;;19.23;82.63
28628;BME280;15815;46.760;19.604;2022-09-16T05:34:19;99628.59;;;19.24;82.96
28628;BME280;15815;46.760;19.604;2022-09-16T05:36:46;99622.88;;;19.24;82.08
28628;BME280;15815;46.760;19.604;2022-09-16T05:39:12;99614.34;;;19.24;81.73
28628;BME280;15815;46.760;19.604;2022-09-16T05:41:40;99628.59;;;19.24;80.99
28628;BME280;15815;46.760;19.604;2022-09-16T05:44:05;99624.03;;;19.18;81.00
28628;BME280;15815;46.760;19.604;2022-09-16T05:46:30;99618.78;;;19.16;80.92
28628;BME280;15815;46.760;19.604;2022-09-16T05:48:56;99619.75;;;19.13;81.30
28628;BME280;15815;46.760;19.604;2022-09-16T05:51:22;99619.44;;;19.11;81.81
28628;BME280;15815;46.760;19.604;2022-09-16T05:53:49;99615.31;;;19.12;81.45
28628;BME280;15815;46.760;19.604;2022-09-16T05:56:18;99612.78;;;19.14;81.16
28628;BME280;15815;46.760;19.604;2022-09-16T05:58:44;99612.78;;;19.14;80.95
28628;BME280;15815;46.760;19.604;2022-09-16T06:01:17;99617.88;;;19.10;81.18
28628;BME280;15815;46.760;19.604;2022-09-16T06:03:45;99613.75;;;19.11;80.61
28628;BME280;15815;46.760;19.604;2022-09-16T06:06:30;99625.63;;;19.09;79.82
28628;BME280;15815;46.760;19.604;2022-09-16T06:08:58;99621.38;;;19.05;80.32
28628;BME280;15815;46.760;19.604;2022-09-16T06:11:25;99622.16;;;19.05;80.72
28628;BME280;15815;46.760;19.604;2022-09-16T06:13:53;99626.44;;;19.01;80.88
28628;BME280;15815;46.760;19.604;2022-09-16T06:16:20;99612.88;;;18.96;80.43
28628;BME280;15815;46.760;19.604;2022-09-16T06:18:45;99610.63;;;19.00;79.95
28628;BME280;15815;46.760;19.604;2022-09-16T06:21:11;99606.22;;;18.99;80.07
28628;BME280;15815;46.760;19.604;2022-09-16T06:23:37;99612.56;;;18.94;80.32
28628;BME280;15815;46.760;19.604;2022-09-16T06:26:08;99617.94;;;18.92;80.23
28628;BME280;15815;46.760;19.604;2022-09-16T06:28:34;99623.63;;;18.92;81.10
28628;BME280;15815;46.760;19.604;2022-09-16T06:31:11;99623.47;;;18.95;80.97
28628;BME280;15815;46.760;19.604;2022-09-16T06:33:37;99620.13;;;18.97;81.00
28628;BME280;15815;46.760;19.604;2022-09-16T06:36:14;99615.50;;;19.08;80.16
28628;BME280;15815;46.760;19.604;2022-09-16T06:38:40;99625.31;;;19.07;80.42
28628;BME280;15815;46.760;19.604;2022-09-16T06:41:07;99619.63;;;19.07;80.07
28628;BME280;15815;46.760;19.604;2022-09-16T06:43:34;99630.22;;;19.07;80.23
28628;BME280;15815;46.760;19.604;2022-09-16T06:46:03;99627.69;;;19.09;80.45
28628;BME280;15815;46.760;19.604;2022-09-16T06:48:31;99626.41;;;19.10;79.75
28628;BME280;15815;46.760;19.604;2022-09-16T06:51:03;99620.72;;;19.10;79.70
28628;BME280;15815;46.760;19.604;2022-09-16T06:53:30;99634.16;;;19.09;80.28
28628;BME280;15815;46.760;19.604;2022-09-16T06:55:59;99621.97;;;19.18;79.16
28628;BME280;15815;46.760;19.604;2022-09-16T06:58:26;99623.53;;;19.19;79.53
28628;BME280;15815;46.760;19.604;2022-09-16T07:00:51;99635.56;;;19.14;79.39
28628;BME280;15815;46.760;19.604;2022-09-16T07:03:16;99634.16;;;19.09;79.43
28628;BME280;15815;46.760;19.604;2022-09-16T07:05:42;99642.53;;;19.13;79.72
28628;BME280;15815;46.760;19.604;2022-09-16T07:08:07;99642.53;;;19.13;79.70
28628;BME280;15815;46.760;19.604;2022-09-16T07:10:32;99646.66;;;19.12;79.41
28628;BME280;15815;46.760;19.604;2022-09-16T07:12:58;99646.66;;;19.12;79.21
28628;BME280;15815;46.760;19.604;2022-09-16T07:15:23;99643.81;;;19.12;79.52
28628;BME280;15815;46.760;19.604;2022-09-16T07:17:53;99640.34;;;19.08;80.01
28628;BME280;15815;46.760;19.604;2022-09-16T07:20:19;99641.00;;;19.03;80.85
28628;BME280;15815;46.760;19.604;2022-09-16T07:22:45;99649.22;;;19.01;81.14
28628;BME280;15815;46.760;19.604;2022-09-16T07:25:14;99655.09;;;18.97;81.33
28628;BME280;15815;46.760;19.604;2022-09-16T07:27:40;99668.53;;;18.97;80.72
28628;BME280;15815;46.760;19.604;2022-09-16T07:30:06;99663.34;;;18.95;80.77
28628;BME280;15815;46.760;19.604;2022-09-16T07:32:32;99659.22;;;18.96;80.90
28628;BME280;15815;46.760;19.604;2022-09-16T07:34:57;99671.22;;;19.00;80.75
28628;BME280;15815;46.760;19.604;2022-09-16T07:37:22;99676.91;;;19.00;80.34
28628;BME280;15815;46.760;19.604;2022-09-16T07:39:48;99673.41;;;19.05;80.32
28628;BME280;15815;46.760;19.604;2022-09-16T07:42:14;99667.28;;;18.98;80.42
28628;BME280;15815;46.760;19.604;2022-09-16T07:44:39;99670.59;;;18.96;80.66
28628;BME280;15815;46.760;19.604;2022-09-16T07:47:05;99672.97;;;18.98;80.64
28628;BME280;15815;46.760;19.604;2022-09-16T07:49:31;99669.78;;;19.05;80.93
28628;BME280;15815;46.760;19.604;2022-09-16T07:51:56;99667.91;;;19.02;81.08
28628;BME280;15815;46.760;19.604;2022-09-16T07:54:21;99659.66;;;19.04;81.61
28628;BME280;15815;46.760;19.604;2022-09-16T07:56:47;99668.03;;;19.07;81.42
28628;BME280;15815;46.760;19.604;2022-09-16T07:59:16;99670.72;;;19.11;82.19
28628;BME280;15815;46.760;19.604;2022-09-16T08:01:41;99675.44;;;19.14;82.21
28628;BME280;15815;46.760;19.604;2022-09-16T08:04:07;99672.28;;;19.12;81.67
28628;BME280;15815;46.760;19.604;2022-09-16T08:06:32;99669.75;;;19.14;81.43
28628;BME280;15815;46.760;19.604;2022-09-16T08:09:01;99665.63;;;19.15;81.93
28628;BME280;15815;46.760;19.604;2022-09-16T08:11:28;99675.44;;;19.14;82.15
28628;BME280;15815;46.760;19.604;2022-09-16T08:13:54;99672.91;;;19.16;81.78
28628;BME280;15815;46.760;19.604;2022-09-16T08:16:21;99679.56;;;19.13;81.75
28628;BME280;15815;46.760;19.604;2022-09-16T08:18:49;99674.81;;;19.10;81.29
28628;BME280;15815;46.760;19.604;2022-09-16T08:21:17;99677.97;;;19.12;82.40
28628;BME280;15815;46.760;19.604;2022-09-16T08:23:43;99677.97;;;19.12;82.60
28628;BME280;15815;46.760;19.604;2022-09-16T08:26:10;99675.50;;;18.96;81.91
28628;BME280;15815;46.760;19.604;2022-09-16T08:28:37;99679.78;;;18.82;81.88
28628;BME280;15815;46.760;19.604;2022-09-16T08:31:04;99673.75;;;18.89;83.04
28628;BME280;15815;46.760;19.604;2022-09-16T08:33:30;99681.06;;;18.81;82.45
28628;BME280;15815;46.760;19.604;2022-09-16T08:36:05;99678.06;;;18.75;82.44
28628;BME280;15815;46.760;19.604;2022-09-16T08:38:33;99675.22;;;18.75;83.06
28628;BME280;15815;46.760;19.604;2022-09-16T08:41:06;99669.19;;;18.82;83.61
28628;BME280;15815;46.760;19.604;2022-09-16T08:43:44;99668.53;;;18.88;84.21
28628;BME280;15815;46.760;19.604;2022-09-16T08:46:21;99676.47;;;18.93;82.67
28628;BME280;15815;46.760;19.604;2022-09-16T08:48:53;99681.03;;;18.99;82.95
28628;BME280;15815;46.760;19.604;2022-09-16T08:51:22;99685.28;;;19.04;82.12
28628;BME280;15815;46.760;19.604;2022-09-16T08:53:56;99687.19;;;19.07;80.99
28628;BME280;15815;46.760;19.604;2022-09-16T08:56:24;99679.72;;;19.09;80.33
28628;BME280;15815;46.760;19.604;2022-09-16T08:58:57;99674.47;;;19.17;80.08
28628;BME280;15815;46.760;19.604;2022-09-16T09:01:33;99684.94;;;19.20;81.10
28628;BME280;15815;46.760;19.604;2022-09-16T09:04:00;99676.84;;;19.28;79.81
28628;BME280;15815;46.760;19.604;2022-09-16T09:07:13;99673.00;;;19.40;80.50
28628;BME280;15815;46.760;19.604;2022-09-16T09:12:44;99682.78;;;19.48;78.66
28628;BME280;15815;46.760;19.604;2022-09-16T09:15:27;99671.72;;;19.41;77.15
28628;BME280;15815;46.760;19.604;2022-09-16T09:26:19;99666.19;;;19.47;76.97
28628;BME280;15815;46.760;19.604;2022-09-16T09:34:24;99671.41;;;19.39;76.03
28628;BME280;15815;46.760;19.604;2022-09-16T09:39:57;99683.28;;;19.37;77.12
28628;BME280;15815;46.760;19.604;2022-09-16T09:42:30;99684.09;;;19.38;77.20
28628;BME280;15815;46.760;19.604;2022-09-16T09:47:34;99684.88;;;19.38;76.17
28628;BME280;15815;46.760;19.604;2022-09-16T09:50:29;99685.19;;;19.40;76.82
28628;BME280;15815;46.760;19.604;2022-09-16T09:53:05;99694.69;;;19.37;75.84
28628;BME280;15815;46.760;19.604;2022-09-16T09:55:38;99696.28;;;19.38;75.66
28628;BME280;15815;46.760;19.604;2022-09-16T09:58:14;99699.59;;;19.37;75.27
28628;BME280;15815;46.760;19.604;2022-09-16T10:00:41;99707.84;;;19.35;75.20
28628;BME280;15815;46.760;19.604;2022-09-16T10:03:12;99702.31;;;19.31;75.10
28628;BME280;15815;46.760;19.604;2022-09-16T10:05:39;99695.66;;;19.34;75.65
28628;BME280;15815;46.760;19.604;2022-09-16T10:08:12;99697.84;;;19.39;76.50
28628;BME280;15815;46.760;19.604;2022-09-16T10:10:59;99701.47;;;19.40;75.05
28628;BME280;15815;46.760;19.604;2022-09-16T10:13:27;99703.53;;;19.39;74.99
28628;BME280;15815;46.760;19.604;2022-09-16T10:16:06;99698.63;;;19.49;75.51
28628;BME280;15815;46.760;19.604;2022-09-16T10:18:35;99701.75;;;19.60;73.80
28628;BME280;15815;46.760;19.604;2022-09-16T10:21:09;99704.78;;;19.57;74.23
28628;BME280;15815;46.760;19.604;2022-09-16T10:23:35;99698.91;;;19.60;74.20
28628;BME280;15815;46.760;19.604;2022-09-16T10:26:19;99690.19;;;19.64;73.69
28628;BME280;15815;46.760;19.604;2022-09-16T10:29:00;99680.56;;;19.52;73.67
28628;BME280;15815;46.760;19.604;2022-09-16T10:31:30;99681.69;;;19.55;74.57
28628;BME280;15815;46.760;19.604;2022-09-16T10:33:58;99688.97;;;19.56;73.94
28628;BME280;15815;46.760;19.604;2022-09-16T10:36:27;99683.88;;;19.51;71.54
28628;BME280;15815;46.760;19.604;2022-09-16T10:38:58;99683.88;;;19.51;71.14
28628;BME280;15815;46.760;19.604;2022-09-16T10:41:27;99673.94;;;19.46;70.90
28628;BME280;15815;46.760;19.604;2022-09-16T10:43:58;99677.88;;;19.49;70.27
28628;BME280;15815;46.760;19.604;2022-09-16T10:46:25;99674.72;;;19.47;69.38
28628;BME280;15815;46.760;19.604;2022-09-16T10:48:53;99666.19;;;19.47;68.75
28628;BME280;15815;46.760;19.604;2022-09-16T10:51:29;99667.13;;;19.43;68.47
28628;BME280;15815;46.760;19.604;2022-09-16T10:54:00;99662.69;;;19.42;68.90
28628;BME280;15815;46.760;19.604;2022-09-16T10:56:45;99664.44;;;19.40;69.11
28628;BME280;15815;46.760;19.604;2022-09-16T10:59:12;99661.09;;;19.41;70.72
28628;BME280;15815;46.760;19.604;2022-09-16T11:02:03;99663.97;;;19.41;71.82
28628;BME280;15815;46.760;19.604;2022-09-16T11:05:03;99673.03;;;19.31;72.49
28628;BME280;15815;46.760;19.604;2022-09-16T11:07:49;99666.25;;;19.28;72.71
28628;BME280;15815;46.760;19.604;2022-09-16T11:10:26;99666.53;;;19.30;73.88
28628;BME280;15815;46.760;19.604;2022-09-16T11:13:19;99666.53;;;19.30;74.22
28628;BME280;15815;46.760;19.604;2022-09-16T11:34:46;99690.00;;;19.25;75.24
28628;BME280;15815;46.760;19.604;2022-09-16T11:37:36;99687.63;;;19.24;76.69
28628;BME280;15815;46.760;19.604;2022-09-16T11:42:46;99696.19;;;19.14;76.52
28628;BME280;15815;46.760;19.604;2022-09-16T11:45:29;99690.34;;;19.18;77.37
28628;BME280;15815;46.760;19.604;2022-09-16T11:50:58;99687.53;;;19.00;75.63
28628;BME280;15815;46.760;19.604;2022-09-16T11:53:41;99690.06;;;18.98;76.88
28628;BME280;15815;46.760;19.604;2022-09-16T11:59:00;99677.56;;;18.95;78.04
28628;BME280;15815;46.760;19.604;2022-09-16T12:01:34;99666.31;;;19.01;78.81
28628;BME280;15815;46.760;19.604;2022-09-16T12:04:16;99668.34;;;19.09;79.09
28628;BME280;15815;46.760;19.604;2022-09-16T12:09:25;99649.81;;;19.14;77.77
28628;BME280;15815;46.760;19.604;2022-09-16T12:12:01;99646.81;;;19.18;77.47
28628;BME280;15815;46.760;19.604;2022-09-16T12:14:36;99641.75;;;19.12;75.38
28628;BME280;15815;46.760;19.604;2022-09-16T12:17:38;99636.84;;;19.13;76.54
28628;BME280;15815;46.760;19.604;2022-09-16T12:20:18;99632.56;;;19.18;76.62
28628;BME280;15815;46.760;19.604;2022-09-16T12:22:51;99625.25;;;19.26;77.58
28628;BME280;15815;46.760;19.604;2022-09-16T12:27:57;99618.09;;;19.30;75.78
28628;BME280;15815;46.760;19.604;2022-09-16T12:30:34;99617.44;;;19.35;74.30
28628;BME280;15815;46.760;19.604;2022-09-16T12:35:36;99617.63;;;19.32;69.47
28628;BME280;15815;46.760;19.604;2022-09-16T12:38:03;99615.91;;;19.25;70.70
28628;BME280;15815;46.760;19.604;2022-09-16T12:40:55;99612.72;;;19.32;72.61
28628;BME280;15815;46.760;19.604;2022-09-16T12:46:22;99594.72;;;19.26;71.63
28628;BME280;15815;46.760;19.604;2022-09-16T12:49:09;99601.00;;;19.30;71.91
28628;BME280;15815;46.760;19.604;2022-09-16T12:54:41;99590.22;;;19.34;71.36
28628;BME280;15815;46.760;19.604;2022-09-16T12:57:43;99593.56;;;19.33;70.59
28628;BME280;15815;46.760;19.604;2022-09-16T13:00:16;99589.31;;;19.28;67.78
28628;BME280;15815;46.760;19.604;2022-09-16T13:02:52;99583.31;;;19.26;68.89
28628;BME280;15815;46.760;19.604;2022-09-16T13:05:30;99589.66;;;19.21;67.60
28628;BME280;15815;46.760;19.604;2022-09-16T13:08:02;99593.78;;;19.20;68.87
28628;BME280;15815;46.760;19.604;2022-09-16T13:12:55;99595.09;;;19.10;67.46
28628;BME280;15815;46.760;19.604;2022-09-16T13:15:28;99578.78;;;19.10;68.78
28628;BME280;15815;46.760;19.604;2022-09-16T13:17:54;99585.44;;;19.07;69.57
28628;BME280;15815;46.760;19.604;2022-09-16T13:20:34;99578.34;;;19.03;68.73
28628;BME280;15815;46.760;19.604;2022-09-16T13:25:32;99582.94;;;19.00;69.40
28628;BME280;15815;46.760;19.604;2022-09-16T13:30:36;99580.56;;;18.99;68.83
28628;BME280;15815;46.760;19.604;2022-09-16T13:33:20;99578.38;;;18.94;69.82
28628;BME280;15815;46.760;19.604;2022-09-16T13:35:49;99578.69;;;18.96;69.72
28628;BME280;15815;46.760;19.604;2022-09-16T13:41:12;99575.50;;;19.03;71.16
28628;BME280;15815;46.760;19.604;2022-09-16T13:46:13;99568.84;;;19.06;71.60
28628;BME280;15815;46.760;19.604;2022-09-16T13:48:57;99570.59;;;19.03;70.08
28628;BME280;15815;46.760;19.604;2022-09-16T13:51:28;99571.19;;;19.07;68.88
28628;BME280;15815;46.760;19.604;2022-09-16T13:53:54;99572.47;;;19.06;68.18
28628;BME280;15815;46.760;19.604;2022-09-16T13:57:04;99570.09;;;19.05;67.38
28628;BME280;15815;46.760;19.604;2022-09-16T13:59:59;99575.81;;;19.05;67.03
28628;BME280;15815;46.760;19.604;2022-09-16T14:10:52;99564.06;;;19.12;68.51
28628;BME280;15815;46.760;19.604;2022-09-16T14:13:21;99565.16;;;19.14;68.83
28628;BME280;15815;46.760;19.604;2022-09-16T14:15:52;99580.19;;;19.15;68.56
28628;BME280;15815;46.760;19.604;2022-09-16T14:18:22;99573.91;;;19.02;68.32
28628;BME280;15815;46.760;19.604;2022-09-16T14:21:04;99578.22;;;18.97;67.69
28628;BME280;15815;46.760;19.604;2022-09-16T14:23:31;99576.50;;;18.91;67.59
28628;BME280;15815;46.760;19.604;2022-09-16T14:26:12;99566.09;;;18.78;66.57
28628;BME280;15815;46.760;19.604;2022-09-16T14:28:39;99562.97;;;18.67;67.73
28628;BME280;15815;46.760;19.604;2022-09-16T14:31:28;99560.88;;;18.59;67.76
28628;BME280;15815;46.760;19.604;2022-09-16T14:33:56;99561.66;;;18.59;68.05
28628;BME280;15815;46.760;19.604;2022-09-16T14:36:28;99550.94;;;18.54;67.73
28628;BME280;15815;46.760;19.604;2022-09-16T14:39:08;99559.31;;;18.58;68.45
28628;BME280;15815;46.760;19.604;2022-09-16T14:41:41;99563.25;;;18.60;68.52
28628;BME280;15815;46.760;19.604;2022-09-16T14:44:14;99562.63;;;18.56;68.50
28628;BME280;15815;46.760;19.604;2022-09-16T14:46:44;99558.84;;;18.50;67.17
28628;BME280;15815;46.760;19.604;2022-09-16T14:49:12;99561.06;;;18.55;69.90
28628;BME280;15815;46.760;19.604;2022-09-16T14:51:47;99555.84;;;18.53;69.57
28628;BME280;15815;46.760;19.604;2022-09-16T14:54:20;99556.16;;;18.56;70.86
28628;BME280;15815;46.760;19.604;2022-09-16T14:59:26;99561.06;;;18.55;69.44
28628;BME280;15815;46.760;19.604;2022-09-16T15:01:54;99562.31;;;18.54;68.47
28628;BME280;15815;46.760;19.604;2022-09-16T15:04:27;99565.16;;;18.54;68.55
28628;BME280;15815;46.760;19.604;2022-09-16T15:06:59;99557.59;;;18.51;67.02
28628;BME280;15815;46.760;19.604;2022-09-16T15:09:40;99555.22;;;18.49;66.81
28628;BME280;15815;46.760;19.604;2022-09-16T15:12:17;99550.97;;;18.45;65.06
28628;BME280;15815;46.760;19.604;2022-09-16T15:14:43;99557.31;;;18.40;65.75
28628;BME280;15815;46.760;19.604;2022-09-16T15:17:18;99550.50;;;18.37;66.14
28628;BME280;15815;46.760;19.604;2022-09-16T15:19:55;99544.03;;;18.37;66.43